Time;durP1;ratioP1;P1;durP2;ratioP2;P2;SDS_P1;SDS_P2;PMS_P1;PMS_P2;Temp;Humidity;BMP_temperature;BMP_pressure;BME280_temperature;BME280_humidity;BME280_pressure;Samples;Min_cycle;Max_cycle;Signal;HPM_P1;HPM_P2
2022/12/10 00:01:54;;;;;;;14.23;12.77;;;6.20;45.30;;;;;;10271065;28;20228;-69
2022/12/10 00:06:57;;;;;;;13.73;12.33;;;6.20;45.30;;;;;;10277147;28;20220;-69
2022/12/10 00:12:01;;;;;;;13.47;12.03;;;6.20;45.20;;;;;;10273950;28;20231;-69
2022/12/10 00:17:05;;;;;;;13.30;11.90;;;6.30;45.20;;;;;;10276438;28;20723;-69
2022/12/10 00:22:14;;;;;;;13.63;12.30;;;6.30;45.30;;;;;;10270253;28;20227;-69
2022/12/10 00:27:19;;;;;;;14.50;13.00;;;6.30;45.30;;;;;;10278096;28;20748;-69
2022/12/10 00:32:22;;;;;;;13.53;12.13;;;6.20;45.10;;;;;;10274974;28;20271;-69
2022/12/10 00:37:25;;;;;;;15.10;13.53;;;6.30;45.10;;;;;;10272352;28;20228;-69
2022/12/10 00:42:30;;;;;;;13.47;12.10;;;6.30;45.10;;;;;;10272338;28;20228;-69
2022/12/10 00:47:33;;;;;;;14.17;12.67;;;6.30;45.10;;;;;;10270958;28;20235;-69
2022/12/10 00:52:36;;;;;;;14.57;13.07;;;6.30;45.10;;;;;;10277948;28;21011;-69
2022/12/10 00:57:41;;;;;;;13.67;12.23;;;6.30;45.10;;;;;;10270719;28;20231;-69
2022/12/10 01:02:44;;;;;;;13.67;12.27;;;6.30;45.10;;;;;;10272605;28;20219;-69
2022/12/10 01:07:47;;;;;;;13.37;12.03;;;6.30;45.10;;;;;;10274564;28;20223;-69
2022/12/10 01:12:52;;;;;;;14.67;13.17;;;6.30;45.00;;;;;;10273061;28;20290;-69
2022/12/10 01:17:55;;;;;;;16.73;13.23;;;6.30;44.80;;;;;;10271375;28;20227;-69
2022/12/10 01:22:58;;;;;;;14.87;13.23;;;6.30;45.00;;;;;;10273469;28;20224;-68
2022/12/10 01:28:03;;;;;;;14.77;13.27;;;6.30;44.90;;;;;;10268866;28;20232;-69
2022/12/10 01:33:06;;;;;;;14.47;12.97;;;6.30;45.00;;;;;;10276299;28;20232;-69
2022/12/10 01:38:09;;;;;;;14.90;12.90;;;6.30;45.10;;;;;;10264019;28;20756;-69
2022/12/10 01:43:15;;;;;;;14.53;12.97;;;6.30;45.00;;;;;;10267117;28;20216;-68
2022/12/10 01:48:19;;;;;;;14.30;12.80;;;6.30;45.10;;;;;;10270666;28;20288;-68
2022/12/10 01:53:22;;;;;;;13.67;12.27;;;6.30;45.10;;;;;;10273366;28;20251;-69
2022/12/10 01:58:27;;;;;;;13.77;12.37;;;6.30;45.20;;;;;;10267407;28;20233;-70
2022/12/10 02:03:39;;;;;;;12.63;11.23;;;6.30;45.10;;;;;;10271891;28;20222;-70
2022/12/10 02:08:50;;;;;;;13.40;12.10;;;6.30;45.10;;;;;;10271620;28;20267;-69
2022/12/10 02:14:02;;;;;;;13.17;11.77;;;6.30;45.10;;;;;;10272530;28;20578;-69
2022/12/10 02:19:14;;;;;;;12.63;11.33;;;6.20;44.90;;;;;;10287637;28;20235;-69
2022/12/10 02:24:23;;;;;;;15.57;13.67;;;6.20;45.00;;;;;;10288768;28;20238;-69
2022/12/10 02:29:29;;;;;;;14.50;12.40;;;6.20;44.80;;;;;;10285817;28;20235;-69
2022/12/10 02:34:36;;;;;;;14.73;13.20;;;6.20;44.90;;;;;;10297617;28;20688;-69
2022/12/10 02:39:42;;;;;;;13.90;12.43;;;6.20;44.80;;;;;;10292275;28;20223;-69
2022/12/10 02:44:49;;;;;;;14.60;13.10;;;6.20;44.70;;;;;;10299756;28;20751;-69
2022/12/10 02:49:56;;;;;;;14.03;12.63;;;6.10;44.60;;;;;;10274201;28;20227;-69
2022/12/10 02:54:59;;;;;;;14.53;13.03;;;6.10;44.80;;;;;;10272944;28;20223;-69
2022/12/10 03:00:12;;;;;;;14.47;12.60;;;6.10;44.80;;;;;;10282068;28;20272;-69
2022/12/10 03:05:20;;;;;;;15.30;13.33;;;6.10;45.00;;;;;;10287459;28;20268;-69
2022/12/10 03:10:28;;;;;;;13.20;11.80;;;6.10;45.00;;;;;;10289795;28;20291;-69
2022/12/10 03:15:36;;;;;;;12.93;11.53;;;6.10;45.10;;;;;;10306085;28;20275;-69
2022/12/10 03:20:43;;;;;;;12.00;10.67;;;6.10;45.10;;;;;;10281975;28;20227;-69
2022/12/10 03:25:48;;;;;;;14.43;12.93;;;6.20;45.20;;;;;;10280013;28;20659;-69
2022/12/10 03:30:55;;;;;;;14.60;13.10;;;6.20;45.20;;;;;;10276241;28;20224;-69
2022/12/10 03:35:58;;;;;;;13.47;12.17;;;6.20;45.20;;;;;;10276743;28;20224;-69
2022/12/10 03:41:02;;;;;;;13.53;11.90;;;6.20;45.20;;;;;;10280549;28;20231;-70
2022/12/10 03:46:06;;;;;;;13.57;12.17;;;6.20;45.10;;;;;;10279128;28;20227;-69
2022/12/10 03:51:09;;;;;;;13.83;12.37;;;6.30;45.20;;;;;;10274752;28;20266;-70
2022/12/10 03:56:13;;;;;;;12.67;11.37;;;6.30;45.20;;;;;;10282911;28;20227;-69
2022/12/10 04:01:17;;;;;;;13.67;12.10;;;6.30;45.30;;;;;;10277042;28;20239;-69
2022/12/10 04:06:20;;;;;;;13.90;12.50;;;6.30;45.10;;;;;;10269600;28;20252;-71
2022/12/10 04:11:24;;;;;;;12.97;11.67;;;6.30;45.10;;;;;;10273586;28;20240;-71
2022/12/10 04:16:30;;;;;;;13.83;12.33;;;6.30;45.10;;;;;;10281061;28;20239;-69
2022/12/10 04:26:58;;;;;;;13.77;12.37;;;6.40;45.10;;;;;;10269877;28;20790;-71
2022/12/10 04:32:03;;;;;;;13.97;12.57;;;6.30;45.00;;;;;;10271159;28;20228;-71
2022/12/10 04:37:07;;;;;;;13.77;12.37;;;6.30;44.90;;;;;;10275002;28;20764;-71
2022/12/10 04:42:10;;;;;;;14.93;12.73;;;6.30;44.80;;;;;;10269275;28;20297;-71
2022/12/10 04:47:15;;;;;;;13.07;11.70;;;6.30;44.70;;;;;;10274732;28;20234;-73
2022/12/10 04:52:18;;;;;;;15.43;12.33;;;6.20;44.80;;;;;;10276018;28;20231;-71
2022/12/10 04:57:21;;;;;;;14.17;12.67;;;6.20;44.80;;;;;;10278470;28;25899;-71
2022/12/10 05:02:26;;;;;;;14.70;13.20;;;6.20;44.90;;;;;;10270592;28;20231;-71
2022/12/10 05:07:29;;;;;;;13.47;12.13;;;6.20;44.90;;;;;;10272750;28;20312;-71
2022/12/10 05:12:32;;;;;;;13.60;12.20;;;6.10;44.80;;;;;;10274275;28;20280;-71
2022/12/10 05:17:37;;;;;;;14.57;11.93;;;6.10;44.90;;;;;;10280122;28;20287;-69
2022/12/10 05:28:00;;;;;;;12.80;11.50;;;6.10;44.80;;;;;;10277895;28;20282;-71
2022/12/10 05:33:05;;;;;;;14.40;12.90;;;6.10;45.00;;;;;;10275710;28;20636;-71
2022/12/10 05:38:10;;;;;;;14.17;12.67;;;6.10;45.00;;;;;;10280735;28;20228;-69
2022/12/10 05:43:13;;;;;;;14.17;12.40;;;6.10;45.00;;;;;;10275608;28;20657;-69
2022/12/10 05:48:17;;;;;;;14.23;12.33;;;6.10;45.00;;;;;;10269469;28;20720;-70
2022/12/10 05:53:21;;;;;;;14.50;13.00;;;6.10;45.60;;;;;;10270701;28;20873;-69
2022/12/10 05:58:24;;;;;;;14.73;12.87;;;6.20;45.00;;;;;;10278387;28;20726;-69
2022/12/10 06:03:29;;;;;;;15.00;13.40;;;6.20;45.00;;;;;;10268718;28;20235;-71
2022/12/10 06:08:32;;;;;;;15.23;13.60;;;6.20;44.90;;;;;;10268762;28;20227;-69
2022/12/10 06:13:36;;;;;;;14.93;13.33;;;6.10;44.80;;;;;;10269339;28;20773;-69
2022/12/10 06:18:40;;;;;;;14.23;12.77;;;6.10;45.00;;;;;;10268400;28;20239;-71
2022/12/10 06:23:44;;;;;;;14.20;12.80;;;6.10;45.10;;;;;;10268628;28;20224;-71
2022/12/10 06:28:48;;;;;;;14.17;12.63;;;6.10;45.10;;;;;;10277924;28;20916;-71
2022/12/10 06:33:53;;;;;;;14.03;12.63;;;6.20;45.10;;;;;;10274317;28;20226;-71
2022/12/10 06:38:56;;;;;;;13.27;11.87;;;6.20;45.10;;;;;;10283590;28;20234;-70
2022/12/10 06:44:00;;;;;;;14.23;12.73;;;6.20;45.00;;;;;;10272181;28;20300;-71
2022/12/10 06:49:05;;;;;;;15.97;14.13;;;6.20;45.10;;;;;;10272787;28;20228;-70
2022/12/10 06:54:08;;;;;;;14.97;13.20;;;6.20;45.20;;;;;;10296258;28;20232;-69
2022/12/10 06:59:11;;;;;;;15.43;13.23;;;6.20;45.10;;;;;;10300626;28;20231;-69
2022/12/10 07:04:16;;;;;;;15.30;13.70;;;6.20;45.00;;;;;;10295194;28;20216;-71
2022/12/10 07:09:19;;;;;;;15.27;13.67;;;6.20;44.80;;;;;;10270342;28;20228;-71
2022/12/10 07:14:22;;;;;;;16.23;14.13;;;6.20;44.80;;;;;;10273382;28;20244;-72
2022/12/10 07:19:27;;;;;;;16.03;14.33;;;6.20;44.90;;;;;;10284681;28;20897;-69
2022/12/10 07:24:30;;;;;;;16.27;14.57;;;6.20;44.80;;;;;;10281415;28;20282;-69
2022/12/10 07:29:33;;;;;;;16.27;14.53;;;6.20;44.60;;;;;;10287742;28;20315;-69
2022/12/10 07:34:38;;;;;;;17.67;15.40;;;6.10;44.40;;;;;;10277364;28;20641;-69
2022/12/10 07:39:42;;;;;;;15.43;13.83;;;6.00;44.20;;;;;;10272228;28;20234;-69
2022/12/10 07:44:45;;;;;;;18.27;15.37;;;6.00;44.50;;;;;;10274574;28;20219;-69
2022/12/10 07:49:54;;;;;;;20.43;15.20;;;5.90;44.60;;;;;;10279608;28;20231;-71
2022/12/10 07:54:57;;;;;;;19.70;16.80;;;5.90;44.70;;;;;;10280827;28;20714;-71
2022/12/10 08:00:00;;;;;;;19.73;16.33;;;5.90;44.70;;;;;;10276828;28;20263;-69
2022/12/10 08:05:05;;;;;;;18.33;15.80;;;5.90;44.50;;;;;;10285878;28;20231;-69
2022/12/10 08:10:08;;;;;;;18.13;16.20;;;5.90;44.70;;;;;;10270491;28;20242;-69
2022/12/10 08:15:13;;;;;;;19.10;16.80;;;5.90;44.70;;;;;;10274281;28;20240;-73
2022/12/10 08:20:18;;;;;;;19.57;17.47;;;5.80;44.60;;;;;;10282125;28;20677;-73
2022/12/10 08:25:21;;;;;;;21.23;18.63;;;5.80;44.60;;;;;;10279706;28;20228;-73
2022/12/10 08:30:24;;;;;;;20.97;18.57;;;5.80;44.70;;;;;;10274339;28;20289;-73
2022/12/10 08:35:29;;;;;;;21.20;18.90;;;5.70;44.70;;;;;;10277954;28;20239;-73
2022/12/10 08:40:32;;;;;;;19.30;16.07;;;5.70;45.50;;;;;;10271315;28;20228;-73
2022/12/10 08:45:36;;;;;;;19.03;16.60;;;5.70;45.00;;;;;;10279171;28;20279;-73
2022/12/10 08:50:40;;;;;;;20.90;17.87;;;5.70;45.10;;;;;;10275101;28;20231;-73
2022/12/10 08:55:44;;;;;;;21.83;17.67;;;5.70;45.00;;;;;;10281597;28;20290;-73
2022/12/10 09:00:51;;;;;;;20.27;17.57;;;5.80;45.10;;;;;;10271247;28;20724;-73
2022/12/10 09:05:56;;;;;;;20.47;18.27;;;5.70;45.00;;;;;;10276133;28;20305;-73
2022/12/10 09:11:04;;;;;;;19.77;17.20;;;5.80;45.10;;;;;;10281987;28;20223;-73
2022/12/10 09:16:08;;;;;;;22.83;17.70;;;5.80;45.20;;;;;;10278691;28;20225;-73
2022/12/10 09:21:14;;;;;;;20.20;17.33;;;5.80;45.00;;;;;;10266790;28;20294;-73
2022/12/10 09:26:18;;;;;;;20.17;17.50;;;5.80;45.10;;;;;;10271466;28;20300;-69
2022/12/10 09:31:21;;;;;;;21.87;17.57;;;5.80;45.20;;;;;;10262480;28;22997;-69
2022/12/10 09:36:26;;;;;;;22.50;19.60;;;5.80;45.40;;;;;;10267197;28;20236;-69
2022/12/10 09:41:56;;;;;;;22.83;19.17;;;5.90;45.20;;;;;;10278192;28;20229;-70
2022/12/10 09:47:01;;;;;;;22.77;19.57;;;5.90;45.20;;;;;;10283763;28;20282;-70
2022/12/10 09:52:11;;;;;;;23.37;19.37;;;5.90;45.00;;;;;;10275829;28;20231;-70
2022/12/10 09:57:21;;;;;;;24.60;20.67;;;5.90;45.10;;;;;;10276355;28;20226;-70
2022/12/10 10:02:27;;;;;;;22.97;19.43;;;5.90;45.00;;;;;;10272557;28;20240;-70
2022/12/10 10:07:34;;;;;;;21.77;18.83;;;5.90;45.00;;;;;;10263866;28;20227;-70
2022/12/10 10:12:41;;;;;;;24.83;20.23;;;5.90;45.30;;;;;;10267067;28;20282;-69
2022/12/10 10:17:46;;;;;;;25.03;20.30;;;6.00;45.40;;;;;;10275616;28;20317;-69
2022/12/10 10:22:51;;;;;;;27.47;21.47;;;6.00;45.40;;;;;;10277949;28;20299;-73
2022/12/10 10:27:54;;;;;;;26.07;21.17;;;6.00;45.10;;;;;;10263285;28;20263;-70
2022/12/10 10:32:58;;;;;;;28.03;21.60;;;6.10;45.00;;;;;;10270031;28;20233;-72
2022/12/10 10:38:07;;;;;;;25.43;21.07;;;6.10;45.10;;;;;;10256974;28;20282;-72
2022/12/10 10:43:18;;;;;;;28.00;22.63;;;6.10;44.90;;;;;;10267193;28;20736;-70
2022/12/10 10:48:23;;;;;;;29.47;23.30;;;6.10;44.90;;;;;;10280152;28;20246;-70
2022/12/10 10:53:31;;;;;;;27.30;22.10;;;6.10;44.90;;;;;;10271165;28;22364;-71
2022/12/10 10:58:34;;;;;;;29.03;22.73;;;6.10;45.10;;;;;;10275015;28;20236;-72
2022/12/10 11:03:45;;;;;;;28.17;22.90;;;6.10;45.20;;;;;;10275631;28;20229;-74
2022/12/10 11:08:52;;;;;;;29.70;23.97;;;6.20;45.10;;;;;;10266173;28;20293;-74
2022/12/10 11:14:16;;;;;;;27.70;21.77;;;6.20;45.00;;;;;;10263052;28;20314;-74
2022/12/10 11:19:22;;;;;;;24.90;20.57;;;6.20;44.90;;;;;;10285670;28;20641;-70
2022/12/10 11:24:27;;;;;;;27.23;22.03;;;6.30;45.00;;;;;;10275677;28;20604;-70
2022/12/10 11:29:47;;;;;;;27.23;22.07;;;6.30;44.80;;;;;;10261909;28;20228;-70
2022/12/10 11:35:02;;;;;;;25.77;21.10;;;6.30;44.80;;;;;;10274662;28;20231;-69
2022/12/10 11:40:44;;;;;;;28.33;21.67;;;6.30;44.90;;;;;;10263008;28;20220;-69
2022/12/10 11:46:00;;;;;;;27.37;21.07;;;6.30;44.70;;;;;;10263464;28;20215;-68
2022/12/10 11:51:06;;;;;;;26.47;21.07;;;6.40;45.00;;;;;;10258623;28;20763;-73
2022/12/10 11:56:19;;;;;;;27.97;22.17;;;6.40;45.00;;;;;;10268733;28;20224;-73
2022/12/10 12:01:33;;;;;;;25.50;21.53;;;6.40;44.70;;;;;;10268457;28;20252;-69
2022/12/10 12:06:53;;;;;;;43.50;38.97;;;6.40;44.70;;;;;;10261421;28;20291;-68
2022/12/10 12:12:06;;;;;;;26.40;22.43;;;6.40;44.80;;;;;;10271868;28;20793;-68
2022/12/10 12:17:14;;;;;;;25.90;21.40;;;6.40;44.90;;;;;;10277024;28;20231;-68
2022/12/10 12:22:24;;;;;;;23.23;19.73;;;6.40;44.90;;;;;;10275786;28;21092;-69
2022/12/10 12:27:33;;;;;;;24.93;20.00;;;6.40;45.00;;;;;;10277996;28;20234;-69
2022/12/10 12:32:47;;;;;;;26.33;20.97;;;6.40;45.00;;;;;;10277356;28;20234;-69
2022/12/10 12:37:56;;;;;;;25.70;21.30;;;6.50;45.30;;;;;;10270731;28;20262;-74
2022/12/10 12:43:02;;;;;;;25.20;20.60;;;6.50;45.10;;;;;;10282174;28;20635;-73
2022/12/10 12:48:19;;;;;;;23.93;19.57;;;6.50;44.80;;;;;;10277214;28;20237;-73
2022/12/10 12:53:25;;;;;;;23.40;19.83;;;6.50;45.10;;;;;;10280401;28;20571;-69
2022/12/10 12:58:41;;;;;;;23.67;18.87;;;6.50;45.10;;;;;;10278974;28;20597;-69
2022/12/10 13:03:48;;;;;;;24.60;20.07;;;6.50;44.90;;;;;;10276401;28;20228;-69
2022/12/10 13:09:15;;;;;;;23.50;19.30;;;6.50;45.00;;;;;;10265299;28;20224;-69
2022/12/10 13:14:35;;;;;;;24.50;19.93;;;6.50;45.30;;;;;;10267217;28;20224;-69
2022/12/10 13:19:41;;;;;;;22.43;19.17;;;6.40;45.30;;;;;;10279477;28;20285;-70
2022/12/10 13:25:15;;;;;;;22.57;18.67;;;6.40;45.40;;;;;;10269651;28;20627;-69
2022/12/10 13:30:35;;;;;;;21.27;17.37;;;6.40;45.80;;;;;;10259292;28;20234;-70
2022/12/10 13:35:56;;;;;;;22.13;18.13;;;6.40;45.80;;;;;;10256911;28;20604;-70
2022/12/10 13:46:30;;;;;;;24.17;19.67;;;6.40;45.50;;;;;;10274943;28;20801;-73
2022/12/10 13:51:47;;;;;;;28.93;20.60;;;6.40;45.70;;;;;;10281372;28;20671;-72
2022/12/10 13:56:56;;;;;;;25.90;21.77;;;6.30;45.60;;;;;;10266799;28;20235;-73
2022/12/10 14:02:17;;;;;;;26.70;22.07;;;6.10;45.30;;;;;;10258654;28;20239;-73
2022/12/10 14:07:22;;;;;;;27.10;22.10;;;6.20;45.50;;;;;;10270318;28;20224;-72
2022/12/10 14:12:30;;;;;;;28.50;22.97;;;6.10;45.50;;;;;;10259640;28;21291;-73
2022/12/10 14:17:37;;;;;;;27.33;22.50;;;6.00;45.60;;;;;;10266457;28;20231;-72
2022/12/10 14:22:47;;;;;;;26.03;21.67;;;5.90;45.60;;;;;;10258475;28;20744;-68
2022/12/10 14:27:51;;;;;;;28.23;23.47;;;5.80;45.80;;;;;;10261575;28;20227;-68
2022/12/10 14:32:57;;;;;;;25.47;20.93;;;5.70;45.60;;;;;;10263789;28;20219;-69
2022/12/10 14:38:04;;;;;;;27.73;23.83;;;5.60;45.60;;;;;;10261189;28;20297;-69
2022/12/10 14:43:11;;;;;;;28.90;24.97;;;5.60;45.80;;;;;;10260345;28;20231;-73
2022/12/10 14:48:16;;;;;;;28.77;23.53;;;5.50;46.10;;;;;;10263141;28;20574;-73
2022/12/10 14:53:23;;;;;;;24.63;20.47;;;5.40;45.90;;;;;;10270682;28;20231;-73
2022/12/10 14:58:35;;;;;;;26.33;21.60;;;5.40;46.10;;;;;;10288412;28;20251;-76
2022/12/10 15:03:46;;;;;;;24.63;21.03;;;5.40;46.10;;;;;;10289485;28;20318;-76
2022/12/10 15:08:57;;;;;;;25.53;21.50;;;5.30;46.00;;;;;;10274650;28;20231;-72
2022/12/10 15:14:03;;;;;;;25.77;20.83;;;5.30;46.20;;;;;;10263629;28;20275;-73
2022/12/10 15:19:20;;;;;;;28.40;22.70;;;5.30;46.10;;;;;;10263564;28;20259;-74
2022/12/10 15:24:28;;;;;;;25.30;21.27;;;5.20;46.60;;;;;;10263516;28;20588;-72
2022/12/10 15:29:36;;;;;;;24.33;20.27;;;5.20;46.40;;;;;;10283717;28;20234;-75
2022/12/10 15:34:42;;;;;;;25.13;20.27;;;5.10;46.20;;;;;;10283954;28;20227;-75
2022/12/10 15:39:50;;;;;;;22.90;19.40;;;5.10;46.20;;;;;;10280855;28;21084;-74
2022/12/10 15:44:57;;;;;;;23.50;19.97;;;5.00;46.20;;;;;;10282312;28;20215;-75
2022/12/10 15:50:00;;;;;;;25.37;19.80;;;5.00;46.40;;;;;;10274041;28;20223;-77
2022/12/10 15:55:06;;;;;;;26.77;20.30;;;4.90;46.40;;;;;;10269156;28;20224;-73
2022/12/10 16:00:16;;;;;;;23.57;19.20;;;4.90;46.30;;;;;;10265272;28;20232;-72
2022/12/10 16:05:25;;;;;;;25.17;20.00;;;4.90;46.20;;;;;;10270699;28;20612;-72
2022/12/10 16:10:30;;;;;;;25.63;18.87;;;4.90;46.00;;;;;;10263388;28;20247;-72
2022/12/10 16:15:44;;;;;;;23.47;18.90;;;5.00;46.60;;;;;;10284658;28;20231;-70
2022/12/10 16:20:47;;;;;;;22.83;19.33;;;5.00;47.00;;;;;;10295686;28;20251;-70
2022/12/10 16:25:52;;;;;;;21.20;17.70;;;5.10;46.00;;;;;;10287010;28;20228;-69
2022/12/10 16:30:56;;;;;;;24.33;19.27;;;5.10;45.80;;;;;;10289352;28;20227;-70
2022/12/10 16:36:01;;;;;;;22.93;18.97;;;5.00;45.60;;;;;;10300373;28;20223;-70
2022/12/10 16:41:15;;;;;;;20.47;18.27;;;4.90;45.50;;;;;;10298820;28;20227;-70
2022/12/10 16:46:18;;;;;;;22.87;18.47;;;4.90;46.00;;;;;;10292463;28;20524;-70
2022/12/10 16:51:25;;;;;;;20.97;18.23;;;4.90;45.90;;;;;;10281711;28;20265;-69
2022/12/10 16:56:30;;;;;;;20.10;17.30;;;4.80;45.80;;;;;;10298886;28;21050;-69
2022/12/10 17:01:34;;;;;;;19.97;17.87;;;4.80;45.90;;;;;;10287959;28;20744;-69
2022/12/10 17:06:38;;;;;;;19.60;16.60;;;4.90;45.90;;;;;;10280002;28;20223;-76
2022/12/10 17:11:47;;;;;;;19.70;16.03;;;4.90;46.00;;;;;;10285058;28;20230;-73
2022/12/10 17:16:51;;;;;;;19.30;17.17;;;4.90;46.40;;;;;;10283891;28;20232;-73
2022/12/10 17:21:55;;;;;;;22.77;18.77;;;5.00;46.20;;;;;;10274693;28;20592;-72
2022/12/10 17:27:04;;;;;;;21.27;18.40;;;5.00;46.00;;;;;;10277128;28;20715;-68
2022/12/10 17:32:12;;;;;;;19.30;16.10;;;5.10;46.10;;;;;;10272897;28;20234;-71
2022/12/10 17:37:17;;;;;;;19.57;16.63;;;5.10;45.70;;;;;;10275031;28;20228;-72
2022/12/10 17:42:22;;;;;;;21.83;18.87;;;5.10;45.80;;;;;;10273568;28;20657;-73
2022/12/10 17:47:27;;;;;;;25.07;19.10;;;5.20;45.90;;;;;;10272744;28;20236;-69
2022/12/10 17:52:30;;;;;;;22.40;18.37;;;5.20;45.70;;;;;;10273082;28;20234;-68
2022/12/10 17:57:35;;;;;;;21.27;17.90;;;5.20;45.70;;;;;;10280149;28;20310;-69
2022/12/10 18:02:38;;;;;;;21.83;18.33;;;5.20;45.70;;;;;;10278270;28;20636;-69
2022/12/10 18:07:42;;;;;;;23.17;19.87;;;5.20;45.60;;;;;;10274333;28;20231;-69
2022/12/10 18:12:47;;;;;;;22.93;20.30;;;5.20;45.50;;;;;;10284071;28;20231;-69
2022/12/10 18:17:50;;;;;;;23.43;19.37;;;5.20;45.30;;;;;;10278353;28;20244;-69
2022/12/10 18:22:54;;;;;;;22.93;20.40;;;5.20;45.40;;;;;;10269755;28;20823;-69
2022/12/10 18:28:02;;;;;;;22.63;19.53;;;5.10;45.40;;;;;;10288476;28;20695;-69
2022/12/10 18:33:06;;;;;;;22.27;19.17;;;5.10;45.50;;;;;;10285992;28;20216;-72
2022/12/10 18:38:12;;;;;;;22.27;19.80;;;5.10;45.70;;;;;;10284729;28;20290;-71
2022/12/10 18:43:17;;;;;;;22.60;19.07;;;5.10;45.70;;;;;;10281120;28;20285;-72
2022/12/10 18:48:20;;;;;;;26.13;21.70;;;5.10;45.50;;;;;;10281537;28;20283;-72
2022/12/10 18:53:24;;;;;;;24.63;20.70;;;5.10;45.40;;;;;;10283310;28;20228;-72
2022/12/10 18:58:28;;;;;;;24.23;21.40;;;5.10;45.50;;;;;;10286547;28;20244;-72
2022/12/10 19:03:31;;;;;;;26.27;22.20;;;5.10;45.50;;;;;;10289666;28;20227;-72
2022/12/10 19:08:34;;;;;;;24.13;21.53;;;5.10;45.40;;;;;;10285901;28;20231;-71
2022/12/10 19:13:59;;;;;;;23.97;20.17;;;5.00;45.60;;;;;;10275878;28;20297;-72
2022/12/10 19:19:04;;;;;;;23.93;20.57;;;5.10;45.60;;;;;;10278059;28;20232;-71
2022/12/10 19:24:10;;;;;;;27.23;23.33;;;5.10;45.50;;;;;;10286560;28;20328;-72
2022/12/10 19:29:17;;;;;;;27.13;21.30;;;5.10;45.40;;;;;;10284897;28;20240;-72
2022/12/10 19:34:21;;;;;;;27.83;23.27;;;5.00;45.30;;;;;;10283655;28;20228;-72
2022/12/10 19:39:25;;;;;;;26.10;22.77;;;5.00;45.40;;;;;;10284538;28;20236;-73
2022/12/10 19:44:30;;;;;;;27.17;23.10;;;5.00;45.60;;;;;;10287379;28;20597;-74
2022/12/10 19:49:33;;;;;;;29.60;23.67;;;4.90;45.40;;;;;;10282940;28;20231;-74
2022/12/10 19:54:37;;;;;;;27.90;23.40;;;4.80;45.50;;;;;;10282042;28;20227;-74
2022/12/10 19:59:41;;;;;;;31.43;24.47;;;4.80;45.50;;;;;;10281941;28;20565;-73
2022/12/10 20:04:44;;;;;;;26.33;23.13;;;4.70;45.80;;;;;;10278462;28;20228;-73
2022/12/10 20:09:48;;;;;;;29.33;24.37;;;4.70;45.90;;;;;;10275861;28;20236;-73
2022/12/10 20:14:52;;;;;;;27.17;22.97;;;4.70;45.90;;;;;;10285178;28;20223;-74
2022/12/10 20:19:56;;;;;;;24.57;20.30;;;4.70;45.90;;;;;;10285436;28;20231;-74
2022/12/10 20:24:59;;;;;;;25.50;21.30;;;4.70;45.90;;;;;;10278248;28;20227;-73
2022/12/10 20:30:05;;;;;;;24.00;20.80;;;4.70;45.90;;;;;;10289118;28;20234;-72
2022/12/10 20:35:09;;;;;;;24.37;21.40;;;4.80;45.90;;;;;;10288261;28;20242;-73
2022/12/10 20:40:16;;;;;;;23.70;20.30;;;4.80;45.70;;;;;;10288050;28;20715;-73
2022/12/10 20:45:40;;;;;;;24.93;19.97;;;4.80;45.60;;;;;;10295169;28;20712;-74
2022/12/10 20:50:43;;;;;;;24.70;21.20;;;4.90;45.60;;;;;;10288881;28;20234;-73
2022/12/10 20:55:47;;;;;;;23.83;20.27;;;4.90;45.60;;;;;;10283082;28;20227;-74
2022/12/10 21:00:51;;;;;;;24.47;19.67;;;4.90;45.60;;;;;;10281975;28;20643;-73
2022/12/10 21:05:54;;;;;;;22.83;19.63;;;4.90;45.70;;;;;;10286077;28;20247;-72
2022/12/10 21:10:58;;;;;;;21.67;19.00;;;4.90;45.50;;;;;;10276530;28;20228;-72
2022/12/10 21:16:04;;;;;;;24.17;20.10;;;4.90;45.30;;;;;;10276029;28;20279;-72
2022/12/10 21:21:08;;;;;;;22.73;18.67;;;4.90;45.20;;;;;;10278769;28;20231;-72
2022/12/10 21:26:13;;;;;;;20.57;17.70;;;4.90;45.20;;;;;;10280032;28;20688;-72
2022/12/10 21:31:20;;;;;;;19.03;16.23;;;4.80;45.00;;;;;;10270826;28;20236;-71
2022/12/10 21:36:23;;;;;;;20.97;17.67;;;4.80;45.00;;;;;;10273982;28;20342;-71
2022/12/10 21:46:49;;;;;;;18.80;16.73;;;4.70;45.00;;;;;;10271844;28;21114;-71
2022/12/10 21:51:52;;;;;;;20.07;16.93;;;4.60;45.10;;;;;;10270396;28;20319;-71
2022/12/10 21:56:56;;;;;;;20.10;16.93;;;4.50;45.10;;;;;;10263174;28;20252;-71
2022/12/10 22:02:00;;;;;;;20.80;18.53;;;4.50;45.20;;;;;;10271359;28;20223;-71
2022/12/10 22:07:04;;;;;;;22.57;19.13;;;4.40;45.30;;;;;;10260129;28;20279;-71
2022/12/10 22:12:07;;;;;;;23.30;20.63;;;4.40;45.40;;;;;;10260575;28;20864;-71
2022/12/10 22:17:13;;;;;;;21.03;18.33;;;4.40;45.60;;;;;;10259990;28;20938;-71
2022/12/10 22:22:16;;;;;;;23.07;19.37;;;4.30;46.30;;;;;;10256553;28;20705;-71
2022/12/10 22:27:19;;;;;;;23.27;20.10;;;4.30;45.50;;;;;;10268317;28;20222;-71
2022/12/10 22:32:24;;;;;;;21.70;18.40;;;4.30;45.50;;;;;;10267022;28;20285;-71
2022/12/10 22:37:27;;;;;;;24.03;19.83;;;4.40;45.70;;;;;;10277824;28;20239;-71
2022/12/10 22:42:30;;;;;;;25.20;21.03;;;4.20;45.50;;;;;;10263902;28;20231;-71
2022/12/10 22:47:35;;;;;;;23.77;19.70;;;4.20;45.50;;;;;;10264255;28;20278;-71
2022/12/10 22:52:38;;;;;;;23.17;20.13;;;4.20;45.50;;;;;;10260895;28;20705;-71
2022/12/10 22:57:41;;;;;;;21.13;18.57;;;4.20;45.60;;;;;;10268433;28;20636;-71
2022/12/10 23:02:46;;;;;;;22.23;18.00;;;4.30;45.90;;;;;;10265724;28;20642;-71
2022/12/10 23:07:49;;;;;;;22.70;19.27;;;4.10;45.90;;;;;;10262531;28;20231;-71
2022/12/10 23:13:09;;;;;;;24.20;20.63;;;4.20;45.90;;;;;;10272386;28;20220;-71
2022/12/10 23:18:15;;;;;;;24.10;20.20;;;4.20;45.80;;;;;;10269940;28;20730;-71
2022/12/10 23:23:19;;;;;;;24.47;21.17;;;4.20;45.90;;;;;;10266622;28;20618;-71
2022/12/10 23:28:22;;;;;;;21.03;18.27;;;4.20;45.90;;;;;;10269434;28;20248;-71
2022/12/10 23:33:26;;;;;;;22.07;19.03;;;4.20;46.10;;;;;;10269320;28;20236;-71
2022/12/10 23:38:30;;;;;;;21.57;18.83;;;4.30;46.10;;;;;;10269082;28;21934;-71
2022/12/10 23:43:33;;;;;;;22.53;19.03;;;4.30;45.90;;;;;;10270501;28;20235;-70
2022/12/10 23:48:37;;;;;;;21.87;19.53;;;4.40;45.90;;;;;;10270792;28;20654;-70
2022/12/10 23:53:40;;;;;;;22.73;18.43;;;4.30;45.80;;;;;;10266337;28;20234;-70
2022/12/10 23:58:44;;;;;;;20.40;17.80;;;4.40;45.90;;;;;;10272046;28;20224;-71
